AirNav   Bose Proflight and A20 aviation headeets
 
 951 users online  

OR87 Blue Skies Farm Airport
Salem, Oregon, USA

GOING TO SALEM?


FAA INFORMATION EFFECTIVE 31 JANUARY 2019

Location

FAA Identifier: OR87
Lat/Long: 44-57-58.0000N / 122-55-21.0000W
44-57.966667N / 122-55.350000W
44.9661111 / -122.9225000
(estimated)
Elevation: 200 ft. / 61 m (estimated)
From city: 6 miles NE of SALEM, OR
Time zone: UTC -8 (UTC -7 during Daylight Saving Time)
Zip code: 97301

Airport Operations

Airport use: Private use. Permission required prior to landing
Activation date: 06/2009
Control tower: no
ARTCC: SEATTLE CENTER
FSS: MC MINNVILLE FLIGHT SERVICE STATION
Attendance: UNATNDD
Wind indicator: yes
Segmented circle: no

Airport Communications

WX ASOS at SLE (5 nm SW): 124.55 (503-371-1062)
WX ASOS at MMV (16 nm NW): 135.675 (503-434-9153)
WX ASOS at UAO (18 nm N): PHONE 503-678-3011

Nearby radio navigation aids

VOR radial/distance  VOR name  Freq  Var
UBGr153/23.3NEWBERG VOR/DME117.4021E
CVOr011/32.2CORVALLIS VOR/DME115.4018E

 
NDB name  Hdg/Dist  Freq  Var  ID
TURNO353/7.226617ESL ... .-..
LEWISBURG020/25.822515ELWG .-.. .-- --.

Airport Services

Runway Information

Runway 1/19

Dimensions: 1345 x 45 ft. / 410 x 14 m
Surface: turf, in good condition
RUNWAY 1  RUNWAY 19
Traffic pattern: leftright
Obstructions: 100 ft. tree, 3000 ft. from runway30 ft. pline

Airport Ownership and Management from official FAA records

Ownership: Privately-owned
Owner: BRIAN AND LINDA SCHAFFNER
6840 LARDON RD NE
SALEM, OR 97305
Phone 503-881-8840
Manager: BRIAN SCHAFFNER
6840 LARDON RD NE
SALEM, OR 97305
Phone 503-881-8840

Airport Operational Statistics

Aircraft based on the field: 1
Single engine airplanes: 1
    

Instrument Procedures

There are no published instrument procedures at OR87.

Some nearby airports with instrument procedures:

KSLE - McNary Field Airport (5 nm SW)
KMMV - Mc Minnville Municipal Airport (16 nm NW)
KUAO - Aurora State Airport (18 nm N)
S12 - Albany Municipal Airport (21 nm S)
KCVO - Corvallis Municipal Airport (32 nm SW)
 
Loc | Ops | Rwys | IFR | FBO | Links
Com | Nav | Svcs | Stats | Notes
Aerial photo
No photo
 
Sectional chart

 
Airport distance calculator
Flying to Blue Skies Farm Airport? Find the distance to fly.

From to OR87

Sunrise and sunset
Times for 17-Feb-2019
 Local
(UTC-8)
 Zulu
(UTC)
Morning civil twilight06:4014:40
Sunrise07:1015:10
Sunset17:4101:41
Evening civil twilight18:1102:11

Current date and time
Zulu (UTC)  17-Feb-2019 21:01:24
Local (UTC-8)  17-Feb-2019 13:01:24
 
METAR
KSLE 
5nm SW 
172056Z 32010KT 10SM OVC019 05/01 A3019 RMK AO2 SLP224 T00500011 51017
KMMV 
17nm NW 
172053Z AUTO 35003KT 10SM OVC015 04/01 A3020 RMK AO2 SLP225 T00390006 51016
KUAO 
18nm N 
172053Z 00000KT 10SM BKN046 06/01 A3020 RMK AO2 SLP227 T00610011 51015
TAF
KSLE 
5nm SW 
171728Z 1718/1818 VRB03KT P6SM OVC007 FM172000 36005KT P6SM SCT010 FM180600 VRB03KT P6SM BKN040 FM181100 14002KT P6SM OVC015
KUAO 
18nm N 
171728Z 1718/1818 00000KT P6SM OVC010 FM172100 36003KT P6SM SCT010 FM180600 00000KT P6SM BKN040 FM180900 00000KT 6SM BR OVC015
NOTAMs
Click for the latest NOTAMs
NOTAMs are issued by the DoD/FAA and will open in a separate window not controlled by AirNav.

 

 
 

Would you like to see your business listed on this page?

 If your business provides an interesting product or service to pilots, flight crews, aircraft, or users of the Blue Skies Farm Airport, you should consider listing it here.  To start the listing process, click on the button below
 
Add a business
 

Other Pages about Blue Skies Farm Airport

Update a link
 
Copyright © AirNav, LLC. All rights reserved. Privacy Policy  Contact